aviador You're here:

KJST Decoded Metar

JOHNSTOWN in PA, USA
Report Time2018-05-25 08:54:00
UTC Time2018-05-25 09:11:20
Flight Rules vfr VFR
Wind210° at 05 kt
W.Decomp.*RWY 23: 4.9 kt HW 0.9 kt LCW
RWY 15: 1.7 kt HW 4.7 kt RCW
W.Rank210° ranks 10
Current wind is below 210° avg. (6.9)
Visibility9999 m
Phenomena:N/A
Clouds:N/A
Expected CloudBase > 3,600 ft AGL from Temp-Dew spread
CeilingNone
Temp16°C (ISA +6)
Dew Point07°C (55% RH)
AAT13.5°C
QNH1020 hPa
Density Alt2,831 ft
Elevation2,277 ft
Report Wrong Elevation
Raw Report
KJST 250854Z AUTO 21005KT 10SM CLR 16/07 A3012 RMK AO2 SLP184
T01610067 56010=

Extra information for KJST:More info

Metar Taf Metar & Taf Last 4 Metars F.Rules Stats Wind Profile Meteogram Temp Stats Airport Information Weather charts Add Link Nearby VenuesMetar ALERT Operation Metar Decoded Social comments

AIRNAV info for KJST